createdAt,value
2023-03-06T00:00:55.009Z,97397.50
2023-03-06T00:03:23.710Z,97407.50
2023-03-06T00:05:51.541Z,97401.19
2023-03-06T00:08:19.319Z,97393.22
2023-03-06T00:10:48.462Z,97396.41
2023-03-06T00:13:18.951Z,97395.44
2023-03-06T00:15:47.096Z,97390.84
2023-03-06T00:18:15.331Z,97387.34
2023-03-06T00:20:44.638Z,97385.28
2023-03-06T00:23:12.493Z,97386.13
2023-03-06T00:25:43.775Z,97378.31
2023-03-06T00:28:14.928Z,97381.47
2023-03-06T00:30:42.946Z,97373.41
2023-03-06T00:33:10.674Z,97368.50
2023-03-06T00:35:39.590Z,97365.00
2023-03-06T00:38:07.608Z,97364.03
2023-03-06T00:40:35.307Z,97365.28
2023-03-06T00:43:03.013Z,97362.44
2023-03-06T00:45:32.145Z,97365.94
2023-03-06T00:47:59.824Z,97354.84
2023-03-06T00:50:27.500Z,97353.25
2023-03-06T00:52:55.527Z,97338.69
2023-03-06T00:55:23.255Z,97335.50
2023-03-06T00:57:50.944Z,97334.88
2023-03-06T01:00:19.604Z,97332.66
2023-03-06T01:02:48.715Z,97332.66
2023-03-06T01:05:16.606Z,97335.50
2023-03-06T01:07:44.294Z,97331.72
2023-03-06T01:10:13.338Z,97329.59
2023-03-06T01:12:41.020Z,97314.19
2023-03-06T01:15:09.866Z,97324.06
2023-03-06T01:17:37.648Z,97308.06
2023-03-06T01:20:08.189Z,97311.09
2023-03-06T01:22:35.880Z,97306.78
2023-03-06T01:25:03.593Z,97305.38
2023-03-06T01:27:31.699Z,97295.50
2023-03-06T01:29:59.497Z,97295.34
2023-03-06T01:32:27.248Z,97300.59
2023-03-06T01:34:55.176Z,97299.19
2023-03-06T01:37:24.587Z,97293.16
2023-03-06T01:39:52.295Z,97288.72
2023-03-06T01:42:19.933Z,97285.72
2023-03-06T01:45:01.286Z,97282.06
2023-03-06T01:47:29.153Z,97289.81
2023-03-06T01:49:58.850Z,97279.69
2023-03-06T01:52:32.284Z,97278.44
2023-03-06T01:55:03.788Z,97275.13
2023-03-06T01:57:34.929Z,97277.31
2023-03-06T02:00:06.586Z,97275.25
2023-03-06T02:02:34.423Z,97268.41
2023-03-06T02:05:05.372Z,97270.81
2023-03-06T02:07:35.369Z,97265.41
2023-03-06T02:10:03.111Z,97260.03
2023-03-06T02:12:31.138Z,97258.44
2023-03-06T02:14:58.815Z,97248.00
2023-03-06T02:17:26.842Z,97254.31
2023-03-06T02:20:04.054Z,97257.16
2023-03-06T02:22:38.838Z,97251.47
2023-03-06T02:25:13.119Z,97246.09
2023-03-06T02:27:42.257Z,97243.84
2023-03-06T02:30:11.709Z,97244.63
2023-03-06T02:32:39.517Z,97230.25
2023-03-06T02:35:08.368Z,97234.34
2023-03-06T02:37:36.041Z,97220.75
2023-03-06T02:40:13.224Z,97218.69
2023-03-06T02:42:46.972Z,97217.22
2023-03-06T02:45:18.393Z,97214.09
2023-03-06T02:47:46.025Z,97224.22
2023-03-06T02:50:13.763Z,97213.91
2023-03-06T02:52:41.587Z,97209.00
2023-03-06T02:55:10.195Z,97217.53
2023-03-06T02:57:37.921Z,97221.50
2023-03-06T03:00:08.602Z,97210.59
2023-03-06T03:02:36.707Z,97206.47
2023-03-06T03:05:05.633Z,97212.50
2023-03-06T03:07:33.392Z,97209.31
2023-03-06T03:10:01.117Z,97202.03
2023-03-06T03:12:29.205Z,97196.97
2023-03-06T03:14:59.090Z,97194.13
2023-03-06T03:17:28.196Z,97191.41
2023-03-06T03:19:55.912Z,97190.63
2023-03-06T03:22:24.130Z,97193.16
2023-03-06T03:24:51.813Z,97189.59
2023-03-06T03:27:19.578Z,97185.78
2023-03-06T03:29:47.236Z,97189.47
2023-03-06T03:32:14.997Z,97185.84
2023-03-06T03:34:44.014Z,97182.97
2023-03-06T03:37:11.818Z,97179.50
2023-03-06T03:39:39.524Z,97181.03
2023-03-06T03:42:07.845Z,97180.94
2023-03-06T03:44:35.514Z,97179.50
2023-03-06T03:47:03.192Z,97186.63
2023-03-06T03:49:31.094Z,97169.84
2023-03-06T03:52:00.145Z,97165.91
2023-03-06T03:54:27.875Z,97173.66
2023-03-06T03:56:55.539Z,97164.03
2023-03-06T03:59:23.526Z,97162.59
2023-03-06T04:01:52.140Z,97159.56
2023-03-06T04:04:19.939Z,97147.41
2023-03-06T04:06:47.623Z,97149.78
2023-03-06T04:09:16.775Z,97147.41
2023-03-06T04:11:44.443Z,97144.50
2023-03-06T04:14:12.109Z,97148.16
2023-03-06T04:16:39.867Z,97146.53
2023-03-06T04:19:07.528Z,97139.91
2023-03-06T04:21:35.175Z,97141.50
2023-03-06T04:24:02.850Z,97132.81
2023-03-06T04:26:31.861Z,97135.34
2023-03-06T04:28:59.720Z,97138.69
2023-03-06T04:31:27.481Z,97137.25
2023-03-06T04:33:55.189Z,97141.53
2023-03-06T04:36:28.281Z,97132.03
2023-03-06T04:38:55.980Z,97131.41
2023-03-06T04:41:23.975Z,97134.56
2023-03-06T04:43:53.717Z,97126.19
2023-03-06T04:46:21.397Z,97129.19
2023-03-06T04:48:49.122Z,97116.81
2023-03-06T04:51:16.998Z,97124.59
2023-03-06T04:53:44.722Z,97124.28
2023-03-06T04:56:12.605Z,97115.88
2023-03-06T04:58:40.301Z,97120.03
2023-03-06T05:01:09.670Z,97114.63
2023-03-06T05:03:37.556Z,97105.28
2023-03-06T05:06:05.906Z,97109.25
2023-03-06T05:08:33.633Z,97107.34
2023-03-06T05:11:02.677Z,97112.41
2023-03-06T05:13:30.982Z,97111.13
2023-03-06T05:16:03.366Z,97111.78
2023-03-06T05:18:33.150Z,97110.66
2023-03-06T05:21:00.885Z,97106.41
2023-03-06T05:23:29.309Z,97108.00
2023-03-06T05:25:57.114Z,97103.06
2023-03-06T05:28:25.924Z,97100.69
2023-03-06T05:30:53.729Z,97101.03
2023-03-06T05:33:21.452Z,97105.75
2023-03-06T05:35:51.335Z,97100.06
2023-03-06T05:38:19.484Z,97093.41
2023-03-06T05:40:47.139Z,97099.59
2023-03-06T05:43:14.943Z,97089.75
2023-03-06T05:45:42.775Z,97086.47
2023-03-06T05:48:11.894Z,97086.75
2023-03-06T05:50:40.190Z,97087.88
2023-03-06T05:53:09.253Z,97087.22
2023-03-06T05:55:37.230Z,97088.34
2023-03-06T05:58:05.243Z,97086.75
2023-03-06T06:00:33.099Z,97082.34
2023-03-06T06:03:02.300Z,97088.97
2023-03-06T06:05:30.376Z,97082.63
2023-03-06T06:07:58.342Z,97087.38
2023-03-06T06:10:27.625Z,97088.97
2023-03-06T06:12:55.267Z,97084.22
2023-03-06T06:15:22.981Z,97081.53
2023-03-06T06:17:51.048Z,97068.72
2023-03-06T06:20:19.015Z,97074.75
2023-03-06T06:22:46.813Z,97075.19
2023-03-06T06:25:16.878Z,97076.31
2023-03-06T06:27:45.946Z,97075.84
2023-03-06T06:30:14.278Z,97074.75
2023-03-06T06:32:42.057Z,97070.94
2023-03-06T06:35:10.362Z,97072.81
2023-03-06T06:37:38.046Z,97080.75
2023-03-06T06:40:06.993Z,97072.03
2023-03-06T06:42:39.853Z,97063.34
2023-03-06T06:45:11.516Z,97068.06
2023-03-06T06:47:41.344Z,97069.16
2023-03-06T06:50:12.954Z,97076.13
2023-03-06T06:52:40.745Z,97074.22
2023-03-06T06:55:09.537Z,97074.38
2023-03-06T06:57:37.237Z,97077.19
2023-03-06T07:00:06.052Z,97077.81
2023-03-06T07:02:35.160Z,97084.78
2023-03-06T07:05:05.125Z,97095.22
2023-03-06T07:07:36.511Z,97087.00
2023-03-06T07:10:06.466Z,97094.63
2023-03-06T07:12:35.102Z,97090.47
2023-03-06T07:15:03.312Z,97087.44
2023-03-06T07:17:30.979Z,97089.66
2023-03-06T07:20:00.589Z,97094.72
2023-03-06T07:22:31.927Z,97089.47
2023-03-06T07:25:04.178Z,97091.53
2023-03-06T07:27:31.905Z,97088.75
2023-03-06T07:29:59.565Z,97087.63
2023-03-06T07:32:27.328Z,97080.50
2023-03-06T07:35:05.716Z,97091.47
2023-03-06T07:37:44.547Z,97085.59
2023-03-06T07:40:13.322Z,97086.19
2023-03-06T07:42:40.997Z,97086.47
2023-03-06T07:45:09.586Z,97087.09
2023-03-06T07:47:37.290Z,97078.94
2023-03-06T07:50:07.257Z,97085.31
2023-03-06T07:52:35.022Z,97091.44
2023-03-06T07:55:04.814Z,97100.50
2023-03-06T07:57:32.514Z,97089.41
2023-03-06T08:00:01.154Z,97098.09
2023-03-06T08:02:28.815Z,97099.78
2023-03-06T08:04:57.022Z,97100.03
2023-03-06T08:07:24.776Z,97105.72
2023-03-06T08:09:52.836Z,97109.38
2023-03-06T08:12:21.849Z,97095.53
2023-03-06T08:14:49.555Z,97101.16
2023-03-06T08:17:17.268Z,97100.25
2023-03-06T08:19:44.991Z,97102.94
2023-03-06T08:22:14.004Z,97107.97
2023-03-06T08:24:42.205Z,97095.75
2023-03-06T08:27:09.904Z,97109.16
2023-03-06T08:29:39.111Z,97100.75
2023-03-06T08:32:07.481Z,97109.63
2023-03-06T08:34:35.179Z,97105.16
2023-03-06T08:37:02.867Z,97108.69
2023-03-06T08:39:30.692Z,97109.22
2023-03-06T08:41:58.421Z,97105.34
2023-03-06T08:44:26.152Z,97108.75
2023-03-06T08:46:55.194Z,97101.06
2023-03-06T08:49:22.931Z,97103.22
2023-03-06T08:51:50.704Z,97110.94
2023-03-06T08:54:18.641Z,97103.81
2023-03-06T08:56:46.308Z,97116.72
2023-03-06T08:59:14.581Z,97113.19
2023-03-06T09:01:42.416Z,97122.00
2023-03-06T09:04:12.697Z,97118.03
2023-03-06T09:06:43.272Z,97112.38
2023-03-06T09:09:11.273Z,97120.53
2023-03-06T09:11:39.636Z,97109.31
2023-03-06T09:14:07.602Z,97114.34
2023-03-06T09:16:35.423Z,97120.03
2023-03-06T09:19:03.219Z,97106.44
2023-03-06T09:21:32.446Z,97109.22
2023-03-06T09:24:00.631Z,97111.31
2023-03-06T09:26:43.500Z,97109.31
2023-03-06T09:29:13.303Z,97111.31
2023-03-06T09:31:41.000Z,97105.94
2023-03-06T09:34:08.704Z,97108.84
2023-03-06T09:36:53.457Z,97100.72
2023-03-06T09:39:25.191Z,97107.53
2023-03-06T09:41:53.720Z,97103.34
2023-03-06T09:44:26.090Z,97107.06
2023-03-06T09:47:08.074Z,97092.69
2023-03-06T09:49:48.758Z,97100.63
2023-03-06T09:52:31.280Z,97099.66
2023-03-06T09:55:03.439Z,97093.16
2023-03-06T09:57:36.512Z,97096.00
2023-03-06T10:00:08.054Z,97102.00
2023-03-06T10:02:40.140Z,97093.16
2023-03-06T10:05:13.082Z,97094.75
2023-03-06T10:07:47.755Z,97094.16
2023-03-06T10:10:23.336Z,97101.59
2023-03-06T10:13:01.510Z,97100.06
2023-03-06T10:15:34.085Z,97100.50
2023-03-06T10:18:03.293Z,97104.31
2023-03-06T10:20:37.904Z,97106.28
2023-03-06T10:23:31.879Z,97109.69
2023-03-06T10:26:02.439Z,97102.91
2023-03-06T10:28:35.521Z,97114.34
2023-03-06T10:31:10.738Z,97103.81
2023-03-06T10:33:54.077Z,97111.97
2023-03-06T10:36:25.254Z,97103.00
2023-03-06T10:38:55.958Z,97117.09
2023-03-06T10:41:29.850Z,97107.22
2023-03-06T10:44:24.109Z,97114.00
2023-03-06T10:46:54.365Z,97107.25
2023-03-06T10:49:34.564Z,97102.66
2023-03-06T10:52:06.741Z,97099.94
2023-03-06T10:54:37.242Z,97102.31
2023-03-06T10:57:26.015Z,97097.66
2023-03-06T10:59:55.802Z,97098.75
2023-03-06T11:02:32.122Z,97106.41
2023-03-06T11:05:03.334Z,97108.63
2023-03-06T11:07:32.832Z,97100.06
2023-03-06T11:10:09.015Z,97113.34
2023-03-06T11:12:38.671Z,97101.91
2023-03-06T11:15:22.951Z,97093.53
2023-03-06T11:17:57.643Z,97099.72
2023-03-06T11:20:29.137Z,97098.50
2023-03-06T11:23:03.578Z,97106.03
2023-03-06T11:25:35.792Z,97095.31
2023-03-06T11:28:06.974Z,97102.31
2023-03-06T11:30:42.661Z,97092.78
2023-03-06T11:33:18.454Z,97088.75
2023-03-06T11:35:52.901Z,97095.72
2023-03-06T11:38:23.537Z,97076.34
2023-03-06T11:40:55.881Z,97079.38
2023-03-06T11:43:29.143Z,97078.94
2023-03-06T11:46:01.419Z,97077.34
2023-03-06T11:48:35.331Z,97072.84
2023-03-06T11:51:11.844Z,97068.03
2023-03-06T11:53:41.490Z,97068.28
2023-03-06T11:56:29.982Z,97069.84
2023-03-06T11:59:12.027Z,97068.47
2023-03-06T12:01:46.503Z,97070.78
2023-03-06T12:04:38.764Z,97069.34
2023-03-06T12:07:20.477Z,97072.50
2023-03-06T12:09:55.530Z,97064.28
2023-03-06T12:12:50.653Z,97063.16
2023-03-06T12:15:30.561Z,97058.88
2023-03-06T12:18:28.809Z,97050.31
2023-03-06T12:21:04.664Z,97054.84
2023-03-06T12:23:54.927Z,97050.56
2023-03-06T12:26:41.317Z,97051.22
2023-03-06T12:29:28.048Z,97034.81
2023-03-06T12:32:14.720Z,97039.31
2023-03-06T12:35:01.018Z,97040.22
2023-03-06T12:37:42.055Z,97032.34
2023-03-06T12:40:28.568Z,97031.44
2023-03-06T12:43:14.116Z,97030.16
2023-03-06T12:45:44.207Z,97031.59
2023-03-06T12:48:17.366Z,97024.41
2023-03-06T12:50:46.194Z,97025.44
2023-03-06T12:53:22.808Z,97019.69
2023-03-06T12:55:51.508Z,97023.53
2023-03-06T12:58:48.586Z,97020.59
2023-03-06T13:01:40.130Z,97012.16
2023-03-06T13:04:28.552Z,97015.41
2023-03-06T13:07:12.269Z,97026.69
2023-03-06T13:09:59.803Z,97019.38
2023-03-06T13:12:44.188Z,97010.94
2023-03-06T13:15:38.224Z,97008.31
2023-03-06T13:18:58.030Z,97010.91
2023-03-06T13:21:48.612Z,97013.63
2023-03-06T13:24:21.179Z,97011.59
2023-03-06T13:26:52.296Z,97016.78
2023-03-06T13:30:02.416Z,97010.47
2023-03-06T13:32:33.498Z,97008.44
2023-03-06T13:35:01.336Z,97011.16
2023-03-06T13:37:54.753Z,97010.91
2023-03-06T13:40:34.126Z,96999.28
2023-03-06T13:43:19.260Z,96992.88
2023-03-06T13:45:49.024Z,97004.59
2023-03-06T13:48:47.645Z,97012.03
2023-03-06T13:51:23.314Z,97000.44
2023-03-06T13:54:23.051Z,96991.75
2023-03-06T13:57:18.188Z,96990.69
2023-03-06T14:00:15.373Z,96995.50
2023-03-06T14:03:22.397Z,96995.31
2023-03-06T14:05:51.722Z,96993.19
2023-03-06T14:08:21.305Z,96988.09
2023-03-06T14:11:01.643Z,96989.50
2023-03-06T14:13:46.683Z,96993.53
2023-03-06T14:16:20.997Z,96994.88
2023-03-06T14:18:50.456Z,96991.03
2023-03-06T14:21:30.433Z,96987.53
2023-03-06T14:24:00.680Z,96984.94
2023-03-06T14:26:34.465Z,96980.66
2023-03-06T14:29:03.265Z,96994.44
2023-03-06T14:31:33.847Z,96992.88
2023-03-06T14:34:04.882Z,96985.22
2023-03-06T14:36:35.596Z,96999.44
2023-03-06T14:39:08.793Z,96988.25
2023-03-06T14:41:38.271Z,96989.84
2023-03-06T14:44:10.746Z,96997.25
2023-03-06T14:46:38.968Z,96994.66
2023-03-06T14:49:08.415Z,96999.63
2023-03-06T14:51:41.690Z,96994.78
2023-03-06T14:54:16.593Z,96990.16
2023-03-06T14:56:48.957Z,96998.94
2023-03-06T14:59:21.516Z,96992.88
2023-03-06T15:01:52.000Z,96988.13
2023-03-06T15:04:26.903Z,96985.44
2023-03-06T15:06:55.554Z,96990.19
2023-03-06T15:09:26.514Z,96988.59
2023-03-06T15:11:58.437Z,96987.03
2023-03-06T15:14:32.506Z,96986.13
2023-03-06T15:17:39.265Z,96984.56
2023-03-06T15:20:09.009Z,96989.28
2023-03-06T15:22:38.847Z,96988.38
2023-03-06T15:25:26.714Z,96981.38
2023-03-06T15:27:57.683Z,96985.00
2023-03-06T15:30:29.397Z,96989.50
2023-03-06T15:33:11.508Z,96982.31
2023-03-06T15:35:39.841Z,96977.13
2023-03-06T15:38:25.358Z,96989.97
2023-03-06T15:40:57.587Z,96980.94
2023-03-06T15:43:27.754Z,96998.06
2023-03-06T15:45:59.581Z,96999.41
2023-03-06T15:48:28.382Z,96991.75
2023-03-06T15:50:56.303Z,96991.25
2023-03-06T15:53:24.202Z,96989.44
2023-03-06T15:55:52.992Z,96998.41
2023-03-06T15:58:24.854Z,96996.81
2023-03-06T16:00:54.100Z,97002.34
2023-03-06T16:03:22.125Z,96996.81
2023-03-06T16:05:49.918Z,97002.91
2023-03-06T16:08:17.756Z,97002.34
2023-03-06T16:10:46.870Z,96994.03
2023-03-06T16:13:17.590Z,97002.00
2023-03-06T16:15:48.724Z,97009.38
2023-03-06T16:18:18.637Z,97011.09
2023-03-06T16:20:46.568Z,97003.75
2023-03-06T16:23:16.043Z,97002.16
2023-03-06T16:25:48.641Z,97002.81
2023-03-06T16:28:17.567Z,97003.63
2023-03-06T16:30:46.046Z,97009.19
2023-03-06T16:33:14.820Z,97013.75
2023-03-06T16:35:46.592Z,97010.59
2023-03-06T16:38:15.573Z,97009.94
2023-03-06T16:40:43.871Z,97004.53
2023-03-06T16:43:13.516Z,97002.97
2023-03-06T16:45:42.774Z,97004.94
2023-03-06T16:48:16.097Z,97016.19
2023-03-06T16:50:45.704Z,97008.88
2023-03-06T16:53:13.723Z,97012.38
2023-03-06T16:55:41.558Z,97009.41
2023-03-06T16:58:09.939Z,97017.19
2023-03-06T17:00:37.710Z,97011.66
2023-03-06T17:03:05.592Z,97018.97
2023-03-06T17:05:34.680Z,97007.84
2023-03-06T17:08:04.616Z,97008.50
2023-03-06T17:10:32.658Z,97015.34
2023-03-06T17:13:00.420Z,97021.34
2023-03-06T17:15:28.303Z,97019.41
2023-03-06T17:17:56.917Z,97012.78
2023-03-06T17:20:24.785Z,97020.72
2023-03-06T17:22:52.709Z,97024.41
2023-03-06T17:25:21.773Z,97029.16
2023-03-06T17:27:49.497Z,97030.91
2023-03-06T17:30:17.512Z,97037.88
2023-03-06T17:32:45.206Z,97039.94
2023-03-06T17:35:12.963Z,97036.78
2023-03-06T17:37:40.678Z,97034.53
2023-03-06T17:40:10.662Z,97042.38
2023-03-06T17:42:39.855Z,97045.34
2023-03-06T17:45:09.277Z,97047.72
2023-03-06T17:47:37.016Z,97052.31
2023-03-06T17:50:05.168Z,97046.91
2023-03-06T17:52:33.462Z,97042.97
2023-03-06T17:55:01.146Z,97039.94
2023-03-06T17:57:28.865Z,97052.44
2023-03-06T17:59:57.945Z,97041.28
2023-03-06T18:02:25.616Z,97047.31
2023-03-06T18:04:53.499Z,97051.38
2023-03-06T18:07:21.141Z,97052.97
2023-03-06T18:09:48.970Z,97049.63
2023-03-06T18:12:16.824Z,97045.34
2023-03-06T18:14:44.580Z,97039.81
2023-03-06T18:17:13.590Z,97043.75
2023-03-06T18:19:41.304Z,97045.34
2023-03-06T18:22:09.064Z,97046.13
2023-03-06T18:24:37.653Z,97044.69
2023-03-06T18:27:05.351Z,97052.31
2023-03-06T18:29:33.069Z,97055.88
2023-03-06T18:32:01.946Z,97057.13
2023-03-06T18:34:31.095Z,97055.19
2023-03-06T18:36:58.853Z,97053.91
2023-03-06T18:39:26.581Z,97056.78
2023-03-06T18:41:54.790Z,97062.19
2023-03-06T18:44:22.534Z,97055.66
2023-03-06T18:46:50.361Z,97053.50
2023-03-06T18:49:18.173Z,97050.19
2023-03-06T18:51:48.142Z,97062.94
2023-03-06T18:54:20.459Z,97054.66
2023-03-06T18:56:48.116Z,97065.44
2023-03-06T18:59:18.825Z,97063.84
2023-03-06T19:01:47.548Z,97053.06
2023-03-06T19:04:15.711Z,97055.91
2023-03-06T19:06:43.496Z,97056.84
2023-03-06T19:09:12.621Z,97054.94
2023-03-06T19:11:40.538Z,97060.47
2023-03-06T19:14:08.627Z,97058.25
2023-03-06T19:16:36.397Z,97047.31
2023-03-06T19:19:04.242Z,97060.47
2023-03-06T19:21:32.053Z,97056.53
2023-03-06T19:23:59.829Z,97064.16
2023-03-06T19:26:29.038Z,97059.69
2023-03-06T19:28:57.088Z,97062.84
2023-03-06T19:31:26.623Z,97055.88
2023-03-06T19:33:56.620Z,97055.88
2023-03-06T19:36:27.594Z,97061.91
2023-03-06T19:38:56.029Z,97068.34
2023-03-06T19:41:24.016Z,97072.28
2023-03-06T19:43:55.342Z,97066.47
2023-03-06T19:46:24.106Z,97063.59
2023-03-06T19:48:56.183Z,97068.03
2023-03-06T19:51:24.675Z,97060.44
2023-03-06T19:53:52.660Z,97059.78
2023-03-06T19:56:22.289Z,97059.78
2023-03-06T19:58:50.040Z,97058.56
2023-03-06T20:01:20.748Z,97058.56
2023-03-06T20:03:50.598Z,97060.03
2023-03-06T20:06:22.024Z,97059.34
2023-03-06T20:08:50.219Z,97060.78
2023-03-06T20:11:19.331Z,97064.63
2023-03-06T20:13:48.090Z,97067.50
2023-03-06T20:16:16.536Z,97063.69
2023-03-06T20:18:46.256Z,97062.25
2023-03-06T20:21:14.903Z,97053.84
2023-03-06T20:23:43.153Z,97043.41
2023-03-06T20:26:13.413Z,97051.31
2023-03-06T20:28:42.462Z,97049.09
2023-03-06T20:31:11.781Z,97036.91
2023-03-06T20:33:39.656Z,97040.38
2023-03-06T20:36:14.068Z,97048.88
2023-03-06T20:38:42.016Z,97048.44
2023-03-06T20:41:15.338Z,97055.28
2023-03-06T20:43:43.327Z,97045.94
2023-03-06T20:46:12.325Z,97046.56
2023-03-06T20:48:40.303Z,97044.03
2023-03-06T20:51:10.935Z,97044.03
2023-03-06T20:53:40.119Z,97052.44
2023-03-06T20:56:11.810Z,97050.84
2023-03-06T20:58:39.510Z,97045.00
2023-03-06T21:01:07.264Z,97041.81
2023-03-06T21:03:35.016Z,97041.81
2023-03-06T21:06:02.843Z,97041.81
2023-03-06T21:08:32.061Z,97040.38
2023-03-06T21:11:01.108Z,97039.22
2023-03-06T21:13:28.936Z,97041.47
2023-03-06T21:15:56.668Z,97037.66
2023-03-06T21:18:24.459Z,97036.16
2023-03-06T21:20:52.427Z,97027.22
2023-03-06T21:23:20.318Z,97029.44
2023-03-06T21:25:48.970Z,97022.84
2023-03-06T21:28:19.030Z,97023.50
2023-03-06T21:30:47.208Z,97009.84
2023-03-06T21:33:16.081Z,97010.78
2023-03-06T21:35:45.368Z,97015.97
2023-03-06T21:38:13.850Z,97019.31
2023-03-06T21:40:42.732Z,97014.22
2023-03-06T21:43:11.352Z,97009.22
2023-03-06T21:45:44.586Z,97015.50
2023-03-06T21:48:13.020Z,97016.44
2023-03-06T21:50:41.321Z,97017.72
2023-03-06T21:53:09.947Z,97013.94
2023-03-06T21:55:41.350Z,97005.41
2023-03-06T21:58:09.252Z,97000.28
2023-03-06T22:00:37.514Z,97000.00
2023-03-06T22:03:06.952Z,96996.31
2023-03-06T22:05:36.351Z,96990.97
2023-03-06T22:08:04.376Z,96995.25
2023-03-06T22:10:32.520Z,96990.34
2023-03-06T22:13:00.954Z,96993.03
2023-03-06T22:15:30.285Z,96991.47
2023-03-06T22:17:58.065Z,96998.28
2023-03-06T22:20:27.283Z,96988.75
2023-03-06T22:22:55.162Z,96989.22
2023-03-06T22:25:22.886Z,96997.19
2023-03-06T22:27:50.702Z,96981.97
2023-03-06T22:30:18.947Z,96989.56
2023-03-06T22:32:46.929Z,96992.13
2023-03-06T22:35:14.820Z,96988.63
2023-03-06T22:37:43.907Z,96996.25
2023-03-06T22:40:12.826Z,96994.34
2023-03-06T22:42:40.617Z,96990.69
2023-03-06T22:45:09.531Z,96983.91
2023-03-06T22:47:37.351Z,96990.38
2023-03-06T22:50:05.585Z,96989.56
2023-03-06T22:52:33.770Z,96982.97
2023-03-06T22:55:03.110Z,96986.16
2023-03-06T22:57:31.001Z,96989.00
2023-03-06T22:59:58.981Z,96986.41
2023-03-06T23:02:26.783Z,96986.22
2023-03-06T23:04:54.609Z,96988.00
2023-03-06T23:07:22.421Z,96978.94
2023-03-06T23:09:50.040Z,96979.72
2023-03-06T23:12:19.064Z,96979.25
2023-03-06T23:14:49.637Z,96979.59
2023-03-06T23:17:17.541Z,96975.91
2023-03-06T23:19:45.756Z,96975.16
2023-03-06T23:22:17.309Z,96975.06
2023-03-06T23:24:45.184Z,96969.97
2023-03-06T23:27:12.967Z,96965.00
2023-03-06T23:29:42.013Z,96967.75
2023-03-06T23:32:09.821Z,96970.88
2023-03-06T23:34:37.516Z,96971.88
2023-03-06T23:37:05.444Z,96972.84
2023-03-06T23:39:33.615Z,96971.69
2023-03-06T23:42:01.385Z,96975.47
2023-03-06T23:44:29.241Z,96974.69
2023-03-06T23:46:58.286Z,96976.41
2023-03-06T23:49:26.159Z,96971.56
2023-03-06T23:51:53.876Z,96978.53
2023-03-06T23:54:21.580Z,96969.78
2023-03-06T23:56:49.302Z,96970.16
2023-03-06T23:59:17.106Z,96977.13
